createdAt,value
2022-10-28T00:00:53.405Z,13.26
2022-10-28T00:03:21.588Z,13.26
2022-10-28T00:05:49.616Z,13.27
2022-10-28T00:08:17.358Z,13.29
2022-10-28T00:10:45.105Z,13.34
2022-10-28T00:13:14.257Z,13.35
2022-10-28T00:15:42.024Z,13.40
2022-10-28T00:18:11.241Z,13.41
2022-10-28T00:20:39.037Z,13.43
2022-10-28T00:23:06.835Z,13.47
2022-10-28T00:25:34.566Z,13.47
2022-10-28T00:28:02.302Z,13.48
2022-10-28T00:32:59.171Z,13.49
2022-10-28T00:35:26.875Z,13.52
2022-10-28T00:37:54.880Z,13.58
2022-10-28T00:40:22.954Z,13.59
2022-10-28T00:42:51.782Z,13.58
2022-10-28T00:45:19.892Z,13.57
2022-10-28T00:47:56.006Z,13.57
2022-10-28T00:50:40.855Z,13.54
2022-10-28T00:53:15.281Z,13.51
2022-10-28T00:55:44.238Z,13.53
2022-10-28T00:58:13.173Z,13.50
2022-10-28T01:00:40.955Z,13.48
2022-10-28T01:03:10.547Z,13.49
2022-10-28T01:05:41.989Z,13.53
2022-10-28T01:08:10.380Z,13.56
2022-10-28T01:10:58.684Z,13.58
2022-10-28T01:13:40.114Z,13.60
2022-10-28T01:16:18.498Z,13.64
2022-10-28T01:18:54.102Z,13.64
2022-10-28T01:21:57.335Z,13.64
2022-10-28T01:24:48.117Z,13.67
2022-10-28T01:27:39.549Z,13.69
2022-10-28T01:30:11.242Z,13.70
2022-10-28T01:32:51.721Z,13.73
2022-10-28T01:35:26.763Z,13.75
2022-10-28T01:38:17.472Z,13.74
2022-10-28T01:40:53.278Z,13.75
2022-10-28T01:43:27.398Z,13.72
2022-10-28T01:46:02.171Z,13.73
2022-10-28T01:51:13.803Z,13.73
2022-10-28T01:53:43.553Z,13.74
2022-10-28T01:56:16.781Z,13.79
2022-10-28T01:58:46.349Z,13.78
2022-10-28T02:01:15.179Z,13.78
2022-10-28T02:03:47.172Z,13.77
2022-10-28T02:06:20.152Z,13.75
2022-10-28T02:08:58.723Z,13.77
2022-10-28T02:11:39.924Z,13.73
2022-10-28T02:14:19.996Z,13.70
2022-10-28T02:16:51.215Z,13.70
2022-10-28T02:19:32.103Z,13.70
2022-10-28T02:22:12.446Z,13.69
2022-10-28T02:24:49.927Z,13.70
2022-10-28T02:27:23.844Z,13.72
2022-10-28T02:29:57.121Z,13.74
2022-10-28T02:32:29.458Z,13.72
2022-10-28T02:35:03.559Z,13.75
2022-10-28T02:37:35.335Z,13.72
2022-10-28T02:40:09.031Z,13.75
2022-10-28T02:42:41.858Z,13.75
2022-10-28T02:45:13.187Z,13.79
2022-10-28T02:47:44.069Z,13.81
2022-10-28T02:50:19.192Z,13.82
2022-10-28T02:52:52.564Z,13.82
2022-10-28T02:55:23.641Z,13.85
2022-10-28T02:57:52.277Z,13.85
2022-10-28T03:00:24.614Z,13.87
2022-10-28T03:02:52.923Z,13.89
2022-10-28T03:05:22.140Z,13.94
2022-10-28T03:07:49.950Z,13.97
2022-10-28T03:10:17.845Z,13.99
2022-10-28T03:12:45.796Z,14.02
2022-10-28T03:15:13.581Z,14.05
2022-10-28T03:17:41.557Z,14.07
2022-10-28T03:20:10.542Z,14.08
2022-10-28T03:22:39.676Z,14.09
2022-10-28T03:25:07.819Z,14.07
2022-10-28T03:27:35.581Z,14.08
2022-10-28T03:30:03.374Z,14.07
2022-10-28T03:32:31.156Z,14.05
2022-10-28T03:34:58.927Z,14.04
2022-10-28T03:37:26.704Z,14.04
2022-10-28T03:39:55.822Z,14.04
2022-10-28T03:42:23.552Z,14.05
2022-10-28T03:44:51.271Z,14.05
2022-10-28T03:47:19.103Z,14.07
2022-10-28T03:49:47.092Z,14.08
2022-10-28T03:52:14.860Z,14.08
2022-10-28T03:54:42.588Z,14.09
2022-10-28T03:57:11.792Z,14.09
2022-10-28T03:59:39.566Z,14.09
2022-10-28T04:02:07.374Z,14.09
2022-10-28T04:04:35.230Z,14.10
2022-10-28T04:07:03.063Z,14.08
2022-10-28T04:09:30.811Z,14.08
2022-10-28T04:11:58.587Z,14.08
2022-10-28T04:14:27.750Z,14.09
2022-10-28T04:16:55.504Z,14.08
2022-10-28T04:19:23.285Z,14.08
2022-10-28T04:21:51.326Z,14.05
2022-10-28T04:24:19.094Z,14.05
2022-10-28T04:26:46.802Z,14.03
2022-10-28T04:29:14.564Z,14.02
2022-10-28T04:31:45.481Z,13.98
2022-10-28T04:34:15.449Z,13.97
2022-10-28T04:36:43.245Z,13.93
2022-10-28T04:39:11.291Z,13.90
2022-10-28T04:41:39.052Z,13.87
2022-10-28T04:44:06.783Z,13.85
2022-10-28T04:46:34.514Z,13.85
2022-10-28T04:49:03.811Z,13.84
2022-10-28T04:51:31.618Z,13.82
2022-10-28T04:53:59.395Z,13.78
2022-10-28T04:56:27.135Z,13.77
2022-10-28T04:58:54.911Z,13.74
2022-10-28T05:01:22.847Z,13.73
2022-10-28T05:03:50.622Z,13.71
2022-10-28T05:06:19.756Z,13.68
2022-10-28T05:08:47.541Z,13.68
2022-10-28T05:11:15.957Z,13.66
2022-10-28T05:13:43.740Z,13.64
2022-10-28T05:16:11.444Z,13.61
2022-10-28T05:18:39.366Z,13.60
2022-10-28T05:21:07.330Z,13.60
2022-10-28T05:23:36.434Z,13.60
2022-10-28T05:26:04.252Z,13.60
2022-10-28T05:28:32.052Z,13.61
2022-10-28T05:30:59.853Z,13.60
2022-10-28T05:33:27.744Z,13.60
2022-10-28T05:35:55.535Z,13.63
2022-10-28T05:38:23.300Z,13.64
2022-10-28T05:40:52.480Z,13.63
2022-10-28T05:43:20.381Z,13.64
2022-10-28T05:45:53.526Z,13.64
2022-10-28T05:48:21.297Z,13.64
2022-10-28T05:50:49.787Z,13.64
2022-10-28T05:53:17.715Z,13.65
2022-10-28T05:55:47.783Z,13.66
2022-10-28T05:58:17.578Z,13.66
2022-10-28T06:00:45.416Z,13.68
2022-10-28T06:03:13.828Z,13.65
2022-10-28T06:05:44.130Z,13.67
2022-10-28T06:08:12.957Z,13.67
2022-10-28T06:10:41.284Z,13.67
2022-10-28T06:13:08.434Z,13.69
2022-10-28T06:15:37.609Z,13.69
2022-10-28T06:18:05.429Z,13.71
2022-10-28T06:20:33.743Z,13.73
2022-10-28T06:23:01.481Z,13.73
2022-10-28T06:25:29.195Z,13.74
2022-10-28T06:27:58.770Z,13.75
2022-10-28T06:30:27.516Z,13.77
2022-10-28T06:32:57.710Z,13.75
2022-10-28T06:35:25.576Z,13.75
2022-10-28T06:37:54.656Z,13.78
2022-10-28T06:40:22.959Z,13.78
2022-10-28T06:42:56.957Z,13.80
2022-10-28T06:45:24.718Z,13.83
2022-10-28T06:47:58.541Z,13.84
2022-10-28T06:50:26.733Z,13.86
2022-10-28T06:52:56.643Z,13.88
2022-10-28T06:55:24.799Z,13.89
2022-10-28T06:57:53.055Z,13.90
2022-10-28T07:00:21.831Z,13.88
2022-10-28T07:02:52.096Z,13.89
2022-10-28T07:05:21.610Z,13.93
2022-10-28T07:07:49.318Z,13.94
2022-10-28T07:10:17.387Z,13.97
2022-10-28T07:12:45.208Z,13.99
2022-10-28T07:15:13.015Z,14.02
2022-10-28T07:17:40.835Z,14.03
2022-10-28T07:20:09.810Z,14.03
2022-10-28T07:22:38.949Z,14.08
2022-10-28T07:25:07.975Z,14.10
2022-10-28T07:27:36.088Z,14.15
2022-10-28T07:30:03.826Z,14.18
2022-10-28T07:32:33.101Z,14.25
2022-10-28T07:35:00.871Z,14.30
2022-10-28T07:37:28.603Z,14.35
2022-10-28T07:39:57.940Z,14.39
2022-10-28T07:42:25.869Z,14.43
2022-10-28T07:44:54.071Z,14.47
2022-10-28T07:47:22.205Z,14.49
2022-10-28T07:49:49.985Z,14.54
2022-10-28T07:52:17.770Z,14.57
2022-10-28T07:54:45.522Z,14.61
2022-10-28T07:57:14.708Z,14.64
2022-10-28T07:59:42.460Z,14.66
2022-10-28T08:02:15.698Z,14.69
2022-10-28T08:04:43.536Z,14.71
2022-10-28T08:07:11.610Z,14.70
2022-10-28T08:09:39.641Z,14.72
2022-10-28T08:12:09.146Z,14.77
2022-10-28T08:14:38.351Z,14.78
2022-10-28T08:17:06.767Z,14.82
2022-10-28T08:19:34.978Z,14.85
2022-10-28T08:22:03.543Z,14.86
2022-10-28T08:24:31.430Z,14.91
2022-10-28T08:26:59.495Z,14.91
2022-10-28T08:29:29.157Z,14.97
2022-10-28T08:31:59.478Z,14.98
2022-10-28T08:34:29.949Z,15.02
2022-10-28T08:36:58.649Z,15.04
2022-10-28T08:39:26.809Z,15.06
2022-10-28T08:42:08.051Z,15.08
2022-10-28T08:44:58.400Z,15.13
2022-10-28T08:47:43.973Z,15.14
2022-10-28T08:50:15.247Z,15.18
2022-10-28T08:52:50.013Z,15.19
2022-10-28T08:55:22.112Z,15.21
2022-10-28T08:57:54.275Z,15.26
2022-10-28T09:00:25.833Z,15.27
2022-10-28T09:03:03.205Z,15.29
2022-10-28T09:05:31.413Z,15.33
2022-10-28T09:07:59.762Z,15.37
2022-10-28T09:10:46.223Z,15.38
2022-10-28T09:13:23.319Z,15.44
2022-10-28T09:16:01.524Z,15.46
2022-10-28T09:18:53.280Z,15.48
2022-10-28T09:21:26.148Z,15.48
2022-10-28T09:23:57.856Z,15.52
2022-10-28T09:26:34.728Z,15.62
2022-10-28T09:29:17.139Z,15.86
2022-10-28T09:31:48.587Z,16.14
2022-10-28T09:34:30.342Z,16.57
2022-10-28T09:37:05.505Z,16.94
2022-10-28T09:39:46.380Z,17.25
2022-10-28T09:42:19.334Z,17.43
2022-10-28T09:44:50.974Z,17.45
2022-10-28T09:47:23.177Z,17.43
2022-10-28T09:49:55.349Z,17.55
2022-10-28T09:52:27.343Z,17.81
2022-10-28T09:54:56.462Z,18.10
2022-10-28T09:57:30.272Z,18.38
2022-10-28T09:59:58.523Z,18.64
2022-10-28T10:02:29.591Z,18.88
2022-10-28T10:05:01.284Z,19.12
2022-10-28T10:07:37.961Z,19.34
2022-10-28T10:10:13.407Z,19.46
2022-10-28T10:12:41.991Z,19.60
2022-10-28T10:15:17.690Z,19.80
2022-10-28T10:17:48.260Z,19.80
2022-10-28T10:20:21.842Z,19.82
2022-10-28T10:22:50.869Z,19.84
2022-10-28T10:25:26.313Z,20.06
2022-10-28T10:27:57.728Z,20.02
2022-10-28T10:30:29.501Z,19.97
2022-10-28T10:32:58.682Z,19.95
2022-10-28T10:35:29.938Z,20.05
2022-10-28T10:38:00.348Z,20.26
2022-10-28T10:40:32.263Z,20.44
2022-10-28T10:43:24.121Z,20.54
2022-10-28T10:45:54.732Z,20.69
2022-10-28T10:48:22.627Z,20.80
2022-10-28T10:50:52.889Z,20.98
2022-10-28T10:53:24.405Z,21.11
2022-10-28T10:55:56.867Z,21.30
2022-10-28T10:58:26.069Z,21.24
2022-10-28T11:00:56.452Z,21.17
2022-10-28T11:03:28.521Z,21.22
2022-10-28T11:06:22.113Z,21.27
2022-10-28T11:08:47.767Z,21.32
2022-10-28T11:11:21.009Z,21.28
2022-10-28T11:14:03.200Z,21.26
2022-10-28T11:16:31.168Z,21.29
2022-10-28T11:18:58.935Z,21.21
2022-10-28T11:21:52.342Z,21.11
2022-10-28T11:24:41.086Z,21.24
2022-10-28T11:27:19.334Z,21.33
2022-10-28T11:29:48.066Z,21.56
2022-10-28T11:32:26.130Z,21.72
2022-10-28T11:35:26.130Z,21.80
2022-10-28T11:38:10.251Z,21.87
2022-10-28T11:40:46.868Z,22.16
2022-10-28T11:43:26.238Z,22.36
2022-10-28T11:46:05.665Z,22.57
2022-10-28T11:48:50.850Z,22.79
2022-10-28T11:51:34.093Z,23.16
2022-10-28T11:54:32.852Z,23.36
2022-10-28T11:57:06.920Z,23.43
2022-10-28T12:00:04.598Z,23.41
2022-10-28T12:02:53.596Z,23.47
2022-10-28T12:05:25.613Z,23.70
2022-10-28T12:08:10.353Z,23.94
2022-10-28T12:10:55.137Z,24.04
2022-10-28T12:13:33.179Z,24.12
2022-10-28T12:16:05.769Z,24.30
2022-10-28T12:18:42.283Z,24.41
2022-10-28T12:21:20.536Z,24.54
2022-10-28T12:23:50.420Z,24.52
2022-10-28T12:26:22.369Z,24.52
2022-10-28T12:28:55.132Z,24.49
2022-10-28T12:31:26.588Z,24.45
2022-10-28T12:33:58.315Z,24.37
2022-10-28T12:36:34.563Z,24.43
2022-10-28T12:39:06.495Z,24.64
2022-10-28T12:41:48.405Z,24.92
2022-10-28T12:44:20.091Z,25.05
2022-10-28T12:46:57.490Z,25.29
2022-10-28T12:49:36.307Z,25.40
2022-10-28T12:52:15.224Z,25.60
2022-10-28T12:54:54.955Z,25.52
2022-10-28T12:57:26.118Z,25.59
2022-10-28T13:00:00.179Z,25.63
2022-10-28T13:02:37.248Z,25.66
2022-10-28T13:05:06.445Z,25.73
2022-10-28T13:07:56.117Z,25.69
2022-10-28T13:10:33.996Z,25.84
2022-10-28T13:13:28.767Z,25.84
2022-10-28T13:16:11.895Z,25.78
2022-10-28T13:19:11.969Z,25.56
2022-10-28T13:22:01.998Z,25.77
2022-10-28T13:24:38.423Z,25.81
2022-10-28T13:27:06.978Z,25.93
2022-10-28T13:29:39.547Z,25.90
2022-10-28T13:32:07.926Z,25.85
2022-10-28T13:34:38.602Z,25.88
2022-10-28T13:37:08.703Z,25.86
2022-10-28T13:39:45.210Z,25.90
2022-10-28T13:42:45.442Z,25.86
2022-10-28T13:45:48.244Z,25.74
2022-10-28T13:48:49.307Z,25.58
2022-10-28T13:51:34.135Z,25.46
2022-10-28T13:54:02.442Z,25.53
2022-10-28T13:56:45.930Z,25.42
2022-10-28T13:59:30.422Z,25.41
2022-10-28T14:02:32.652Z,25.35
2022-10-28T14:05:01.578Z,25.35
2022-10-28T14:07:31.979Z,25.23
2022-10-28T14:10:19.244Z,25.22
2022-10-28T14:12:51.157Z,25.15
2022-10-28T14:15:22.427Z,25.09
2022-10-28T14:17:55.971Z,24.94
2022-10-28T14:20:34.536Z,24.84
2022-10-28T14:23:02.980Z,24.75
2022-10-28T14:26:04.551Z,24.70
2022-10-28T14:28:55.726Z,24.62
2022-10-28T14:31:45.584Z,24.45
2022-10-28T14:34:39.991Z,24.24
2022-10-28T14:37:28.312Z,24.09
2022-10-28T14:40:07.136Z,24.00
2022-10-28T14:42:58.085Z,23.86
2022-10-28T14:45:36.080Z,23.75
2022-10-28T14:48:23.398Z,23.58
2022-10-28T14:50:53.534Z,23.41
2022-10-28T14:53:27.546Z,23.33
2022-10-28T14:56:01.599Z,23.21
2022-10-28T14:58:32.636Z,23.11
2022-10-28T15:01:15.209Z,22.99
2022-10-28T15:03:44.184Z,22.83
2022-10-28T15:06:27.040Z,22.71
2022-10-28T15:08:58.031Z,22.59
2022-10-28T15:11:26.042Z,22.48
2022-10-28T15:13:55.290Z,22.35
2022-10-28T15:16:24.614Z,22.22
2022-10-28T15:18:55.042Z,22.11
2022-10-28T15:21:23.636Z,21.99
2022-10-28T15:24:02.120Z,21.90
2022-10-28T15:26:30.021Z,21.81
2022-10-28T15:28:57.937Z,21.72
2022-10-28T15:31:27.613Z,21.63
2022-10-28T15:33:55.484Z,21.58
2022-10-28T15:36:25.656Z,21.52
2022-10-28T15:39:05.954Z,21.44
2022-10-28T15:41:45.343Z,21.38
2022-10-28T15:44:32.795Z,21.31
2022-10-28T15:47:03.192Z,21.25
2022-10-28T15:49:35.433Z,21.18
2022-10-28T15:52:23.272Z,21.13
2022-10-28T15:54:58.524Z,21.07
2022-10-28T15:57:29.969Z,21.01
2022-10-28T16:00:20.778Z,20.96
2022-10-28T16:02:59.387Z,20.89
2022-10-28T16:05:55.804Z,20.83
2022-10-28T16:08:26.592Z,20.77
2022-10-28T16:10:57.668Z,20.71
2022-10-28T16:13:30.151Z,20.65
2022-10-28T16:16:02.695Z,20.60
2022-10-28T16:18:32.832Z,20.55
2022-10-28T16:21:02.060Z,20.50
2022-10-28T16:23:36.127Z,20.44
2022-10-28T16:26:03.983Z,20.39
2022-10-28T16:28:33.618Z,20.33
2022-10-28T16:31:03.254Z,20.29
2022-10-28T16:33:33.825Z,20.25
2022-10-28T16:36:02.612Z,20.19
2022-10-28T16:38:31.262Z,20.15
2022-10-28T16:41:00.874Z,20.10
2022-10-28T16:43:30.845Z,20.05
2022-10-28T16:46:01.233Z,20.00
2022-10-28T16:48:30.706Z,19.95
2022-10-28T16:51:00.727Z,19.89
2022-10-28T16:53:28.836Z,19.85
2022-10-28T16:55:59.051Z,19.80
2022-10-28T16:58:27.293Z,19.76
2022-10-28T17:00:55.233Z,19.69
2022-10-28T17:03:24.461Z,19.66
2022-10-28T17:05:52.254Z,19.63
2022-10-28T17:08:36.465Z,19.59
2022-10-28T17:11:08.230Z,19.54
2022-10-28T17:13:36.055Z,19.49
2022-10-28T17:16:03.853Z,19.44
2022-10-28T17:18:33.181Z,19.40
2022-10-28T17:21:01.805Z,19.35
2022-10-28T17:23:30.247Z,19.30
2022-10-28T17:25:59.021Z,19.19
2022-10-28T17:28:26.850Z,19.04
2022-10-28T17:30:55.409Z,18.90
2022-10-28T17:33:23.177Z,18.77
2022-10-28T17:35:52.317Z,18.69
2022-10-28T17:38:20.076Z,18.64
2022-10-28T17:40:54.999Z,18.61
2022-10-28T17:43:22.912Z,18.55
2022-10-28T17:45:51.057Z,18.50
2022-10-28T17:48:18.911Z,18.45
2022-10-28T17:50:56.000Z,18.40
2022-10-28T17:53:23.823Z,18.39
2022-10-28T17:55:56.963Z,18.36
2022-10-28T17:58:25.062Z,18.30
2022-10-28T18:00:58.281Z,18.23
2022-10-28T18:03:26.678Z,18.22
2022-10-28T18:05:56.134Z,18.19
2022-10-28T18:08:24.571Z,18.14
2022-10-28T18:10:53.100Z,18.13
2022-10-28T18:13:20.965Z,18.15
2022-10-28T18:15:48.810Z,18.11
2022-10-28T18:18:16.619Z,18.13
2022-10-28T18:20:46.185Z,18.11
2022-10-28T18:23:15.465Z,18.13
2022-10-28T18:25:43.221Z,18.09
2022-10-28T18:28:11.087Z,18.08
2022-10-28T18:30:38.874Z,18.00
2022-10-28T18:33:06.651Z,17.92
2022-10-28T18:35:35.630Z,17.90
2022-10-28T18:38:03.447Z,17.86
2022-10-28T18:40:32.646Z,17.83
2022-10-28T18:43:00.471Z,17.79
2022-10-28T18:45:28.375Z,17.71
2022-10-28T18:47:56.505Z,17.69
2022-10-28T18:50:25.729Z,17.64
2022-10-28T18:52:53.952Z,17.59
2022-10-28T18:55:21.919Z,17.56
2022-10-28T18:57:54.780Z,17.55
2022-10-28T19:00:23.339Z,17.51
2022-10-28T19:02:52.434Z,17.50
2022-10-28T19:05:20.405Z,17.49
2022-10-28T19:07:48.285Z,17.47
2022-10-28T19:10:16.227Z,17.45
2022-10-28T19:12:45.888Z,17.43
2022-10-28T19:15:17.595Z,17.39
2022-10-28T19:17:45.427Z,17.36
2022-10-28T19:20:13.337Z,17.35
2022-10-28T19:22:41.179Z,17.29
2022-10-28T19:25:09.468Z,17.25
2022-10-28T19:27:37.256Z,17.12
2022-10-28T19:30:09.141Z,17.11
2022-10-28T19:32:41.561Z,17.09
2022-10-28T19:35:11.272Z,17.08
2022-10-28T19:37:39.028Z,17.05
2022-10-28T19:40:08.007Z,16.99
2022-10-28T19:42:35.811Z,16.96
2022-10-28T19:45:05.070Z,16.95
2022-10-28T19:47:33.055Z,16.90
2022-10-28T19:50:02.223Z,16.86
2022-10-28T19:52:30.604Z,16.84
2022-10-28T19:54:58.421Z,16.80
2022-10-28T19:57:26.254Z,16.77
2022-10-28T19:59:54.047Z,16.79
2022-10-28T20:02:22.228Z,16.75
2022-10-28T20:04:54.882Z,16.73
2022-10-28T20:07:24.417Z,16.70
2022-10-28T20:09:52.345Z,16.70
2022-10-28T20:12:20.228Z,16.70
2022-10-28T20:14:48.115Z,16.68
2022-10-28T20:17:17.204Z,16.68
2022-10-28T20:19:45.098Z,16.67
2022-10-28T20:22:13.241Z,16.69
2022-10-28T20:24:42.468Z,16.68
2022-10-28T20:27:10.313Z,16.63
2022-10-28T20:29:38.148Z,16.62
2022-10-28T20:32:06.019Z,16.60
2022-10-28T20:34:33.826Z,16.60
2022-10-28T20:37:01.699Z,16.59
2022-10-28T20:39:29.497Z,16.50
2022-10-28T20:41:58.921Z,16.38
2022-10-28T20:44:27.572Z,16.34
2022-10-28T20:46:55.434Z,16.31
2022-10-28T20:49:23.451Z,16.33
2022-10-28T20:51:51.348Z,16.31
2022-10-28T20:54:19.887Z,16.26
2022-10-28T20:56:47.799Z,16.18
2022-10-28T20:59:17.353Z,16.12
2022-10-28T21:01:45.516Z,16.07
2022-10-28T21:04:13.820Z,16.01
2022-10-28T21:06:41.864Z,15.95
2022-10-28T21:09:11.791Z,15.87
2022-10-28T21:11:39.670Z,15.80
2022-10-28T21:14:07.768Z,15.76
2022-10-28T21:16:37.127Z,15.68
2022-10-28T21:19:05.085Z,15.65
2022-10-28T21:21:33.017Z,15.65
2022-10-28T21:24:00.846Z,15.57
2022-10-28T21:26:28.785Z,15.49
2022-10-28T21:28:57.417Z,15.38
2022-10-28T21:31:25.621Z,15.29
2022-10-28T21:33:54.883Z,15.25
2022-10-28T21:36:23.451Z,15.23
2022-10-28T21:38:55.630Z,15.22
2022-10-28T21:41:24.365Z,15.19
2022-10-28T21:43:53.630Z,15.23
2022-10-28T21:46:23.246Z,15.19
2022-10-28T21:48:51.078Z,15.18
2022-10-28T21:51:20.390Z,15.16
2022-10-28T21:53:48.167Z,15.13
2022-10-28T21:56:18.880Z,15.11
2022-10-28T21:58:48.081Z,15.11
2022-10-28T22:01:18.363Z,15.09
2022-10-28T22:03:46.258Z,15.06
2022-10-28T22:06:14.382Z,15.04
2022-10-28T22:08:43.843Z,15.03
2022-10-28T22:11:14.325Z,15.04
2022-10-28T22:13:42.175Z,15.03
2022-10-28T22:16:18.204Z,15.01
2022-10-28T22:18:46.420Z,15.02
2022-10-28T22:21:16.602Z,15.00
2022-10-28T22:23:45.979Z,14.94
2022-10-28T22:26:16.220Z,14.89
2022-10-28T22:28:44.556Z,14.82
2022-10-28T22:31:14.379Z,14.77
2022-10-28T22:33:42.542Z,14.70
2022-10-28T22:36:12.055Z,14.66
2022-10-28T22:38:40.282Z,14.61
2022-10-28T22:41:13.110Z,14.52
2022-10-28T22:43:42.819Z,14.48
2022-10-28T22:46:11.335Z,14.43
2022-10-28T22:48:39.344Z,14.39
2022-10-28T22:51:07.469Z,14.35
2022-10-28T22:53:35.315Z,14.31
2022-10-28T22:56:03.203Z,14.31
2022-10-28T22:58:32.493Z,14.29
2022-10-28T23:01:07.668Z,14.31
2022-10-28T23:03:39.827Z,14.30
2022-10-28T23:06:08.941Z,14.27
2022-10-28T23:08:38.504Z,14.25
2022-10-28T23:11:06.587Z,14.28
2022-10-28T23:16:05.051Z,14.35
2022-10-28T23:18:33.052Z,14.37
2022-10-28T23:21:05.228Z,14.35
2022-10-28T23:23:33.065Z,14.37
2022-10-28T23:26:01.246Z,14.38
2022-10-28T23:28:29.363Z,14.39
2022-10-28T23:31:02.377Z,14.36
2022-10-28T23:33:30.955Z,14.33
2022-10-28T23:35:59.720Z,14.35
2022-10-28T23:38:28.161Z,14.31
2022-10-28T23:40:57.399Z,14.25
2022-10-28T23:43:25.238Z,14.22
2022-10-28T23:45:53.103Z,14.22
2022-10-28T23:48:22.693Z,14.24
2022-10-28T23:50:52.072Z,14.24
2022-10-28T23:53:20.100Z,14.25
2022-10-28T23:55:49.951Z,14.24
2022-10-28T23:58:19.250Z,14.24
